Time;durP1;ratioP1;P1;durP2;ratioP2;P2;SDS_P1;SDS_P2;PMS_P1;PMS_P2;Temp;Humidity;BMP_temperature;BMP_pressure;BME280_temperature;BME280_humidity;BME280_pressure;Samples;Min_cycle;Max_cycle;Signal;HPM_P1;HPM_P2
2021/10/25 00:00:25;;;;;;;12.75;4.40;;;5.20;99.90;;;;;;5086842;28;20611;-44
2021/10/25 00:02:50;;;;;;;14.93;4.78;;;5.20;99.90;;;;;;5089791;28;20059;-45
2021/10/25 00:05:16;;;;;;;13.68;4.63;;;5.20;99.90;;;;;;5081321;28;20067;-45
2021/10/25 00:07:41;;;;;;;10.00;3.70;;;5.20;99.90;;;;;;5088815;28;20474;-47
2021/10/25 00:10:07;;;;;;;8.30;4.22;;;5.00;99.90;;;;;;5091746;28;20500;-46
2021/10/25 00:12:33;;;;;;;7.15;3.78;;;5.00;99.90;;;;;;5090314;28;20024;-47
2021/10/25 00:14:59;;;;;;;7.28;4.20;;;4.90;99.90;;;;;;5091749;28;20067;-45
2021/10/25 00:17:25;;;;;;;7.30;4.03;;;4.80;99.90;;;;;;5090868;28;20370;-45
2021/10/25 00:19:50;;;;;;;7.30;4.22;;;4.80;99.90;;;;;;5091564;28;20046;-44
2021/10/25 00:22:16;;;;;;;11.27;4.15;;;4.70;99.90;;;;;;5090753;28;20024;-45
2021/10/25 00:24:42;;;;;;;12.00;4.47;;;4.70;99.90;;;;;;5078631;28;20050;-45
2021/10/25 00:27:07;;;;;;;9.77;4.00;;;4.80;99.90;;;;;;5090907;28;20024;-45
2021/10/25 00:29:33;;;;;;;10.02;4.45;;;4.70;99.90;;;;;;5056846;28;20066;-45
2021/10/25 00:31:58;;;;;;;5.50;4.00;;;4.70;99.90;;;;;;5078111;28;20039;-47
2021/10/25 00:34:24;;;;;;;8.15;4.78;;;4.60;99.90;;;;;;5072290;28;20025;-45
2021/10/25 00:36:50;;;;;;;8.18;4.00;;;4.50;99.90;;;;;;5069885;28;20401;-47
2021/10/25 00:39:15;;;;;;;8.15;4.82;;;4.50;99.90;;;;;;5063393;28;20490;-45
2021/10/25 00:41:41;;;;;;;10.18;5.15;;;4.60;99.90;;;;;;5070500;28;20381;-45
2021/10/25 00:44:07;;;;;;;8.25;4.40;;;4.60;99.90;;;;;;5062237;28;20029;-46
2021/10/25 00:46:32;;;;;;;9.57;4.60;;;4.60;99.90;;;;;;5060859;28;20110;-45
2021/10/25 00:48:59;;;;;;;10.88;4.38;;;4.50;99.90;;;;;;5062073;28;20049;-45
2021/10/25 00:51:25;;;;;;;10.85;4.05;;;4.50;99.90;;;;;;5061656;28;20023;-45
2021/10/25 00:53:50;;;;;;;10.07;4.45;;;4.40;99.90;;;;;;5063131;28;20417;-46
2021/10/25 00:56:16;;;;;;;7.95;4.68;;;4.50;99.90;;;;;;5061539;28;20070;-46
2021/10/25 00:58:42;;;;;;;5.03;3.50;;;4.50;99.90;;;;;;5059389;28;20074;-47
2021/10/25 01:01:08;;;;;;;7.03;3.80;;;4.40;99.90;;;;;;5062060;28;20549;-45
2021/10/25 01:03:35;;;;;;;8.68;3.53;;;4.40;99.90;;;;;;5060736;28;20113;-46
2021/10/25 01:06:04;;;;;;;10.35;4.15;;;4.30;99.90;;;;;;5059614;28;20116;-46
2021/10/25 01:08:34;;;;;;;5.65;3.53;;;4.30;99.90;;;;;;5058950;28;19908;-48
2021/10/25 01:10:59;;;;;;;6.60;3.75;;;4.30;99.90;;;;;;5061968;28;20472;-45
2021/10/25 01:13:26;;;;;;;7.45;4.18;;;4.20;99.90;;;;;;5059230;28;20036;-46
2021/10/25 01:15:52;;;;;;;13.50;4.28;;;4.20;99.90;;;;;;5060159;28;20020;-46
2021/10/25 01:18:17;;;;;;;8.50;4.25;;;4.20;99.90;;;;;;5060728;28;20031;-45
2021/10/25 01:20:43;;;;;;;8.35;4.65;;;4.20;99.90;;;;;;5059434;28;20043;-48
2021/10/25 01:23:08;;;;;;;12.07;4.45;;;4.20;99.90;;;;;;5059548;28;20441;-46
2021/10/25 01:25:35;;;;;;;10.90;3.78;;;4.20;99.90;;;;;;5064468;28;20545;-45
2021/10/25 01:28:01;;;;;;;7.22;3.60;;;4.20;99.90;;;;;;5057725;28;20025;-45
2021/10/25 01:30:27;;;;;;;11.70;4.57;;;4.20;99.90;;;;;;5062682;28;20021;-46
2021/10/25 01:32:52;;;;;;;7.07;3.90;;;4.20;99.90;;;;;;5061724;28;20488;-45
2021/10/25 01:35:18;;;;;;;9.15;3.78;;;4.10;99.90;;;;;;5057497;28;20086;-45
2021/10/25 01:37:43;;;;;;;6.38;3.58;;;4.10;99.90;;;;;;5061081;28;20055;-45
2021/10/25 01:40:11;;;;;;;14.45;4.35;;;4.10;99.90;;;;;;5059450;28;20490;-45
2021/10/25 01:42:37;;;;;;;10.50;4.18;;;4.10;99.90;;;;;;5063820;28;20052;-46
2021/10/25 01:45:04;;;;;;;8.55;4.65;;;4.10;99.90;;;;;;5049677;28;20259;-45
2021/10/25 01:47:29;;;;;;;7.43;3.95;;;4.10;99.90;;;;;;5048868;28;20402;-45
2021/10/25 01:49:55;;;;;;;7.00;3.72;;;4.00;99.90;;;;;;5068716;28;20016;-45
2021/10/25 01:52:20;;;;;;;7.90;3.40;;;3.90;99.90;;;;;;5084656;28;20028;-45
2021/10/25 01:54:46;;;;;;;6.20;3.70;;;3.80;99.90;;;;;;5077596;28;20035;-45
2021/10/25 01:57:12;;;;;;;7.22;4.07;;;3.70;99.90;;;;;;5082802;28;20546;-45
2021/10/25 01:59:37;;;;;;;6.95;3.78;;;3.60;99.90;;;;;;5081967;28;20375;-45
2021/10/25 02:02:03;;;;;;;7.15;3.60;;;3.60;99.90;;;;;;5082455;28;20255;-45
2021/10/25 02:04:29;;;;;;;7.85;4.10;;;3.50;99.90;;;;;;5086921;28;20039;-45
2021/10/25 02:06:55;;;;;;;7.15;4.13;;;3.50;99.90;;;;;;5079398;28;20536;-46
2021/10/25 02:09:21;;;;;;;6.05;3.60;;;3.50;99.90;;;;;;5057226;28;20239;-45
2021/10/25 02:11:47;;;;;;;8.40;4.63;;;3.60;99.90;;;;;;5063489;28;20020;-46
2021/10/25 02:14:13;;;;;;;6.80;3.92;;;3.50;99.90;;;;;;5063326;28;20036;-45
2021/10/25 02:16:39;;;;;;;8.48;4.35;;;3.50;99.90;;;;;;5056944;28;20021;-45
2021/10/25 02:19:05;;;;;;;6.97;4.43;;;3.60;99.90;;;;;;5057042;28;20059;-45
2021/10/25 02:21:31;;;;;;;8.13;4.47;;;3.60;99.90;;;;;;5080761;28;20059;-45
2021/10/25 02:23:57;;;;;;;10.77;3.83;;;3.50;99.90;;;;;;5087887;28;20259;-45
2021/10/25 02:26:22;;;;;;;7.45;4.68;;;3.50;99.90;;;;;;5076047;28;20438;-45
2021/10/25 02:28:48;;;;;;;11.50;4.35;;;3.40;99.90;;;;;;5087152;28;20032;-47
2021/10/25 02:31:13;;;;;;;6.65;3.70;;;3.40;99.90;;;;;;5076256;28;20432;-45
2021/10/25 02:33:39;;;;;;;10.80;3.85;;;3.40;99.90;;;;;;5071955;28;20009;-45
2021/10/25 02:36:06;;;;;;;8.73;4.30;;;3.40;99.90;;;;;;5085362;28;20119;-44
2021/10/25 02:38:36;;;;;;;5.90;3.80;;;3.40;99.90;;;;;;5086318;28;20018;-46
2021/10/25 02:41:03;;;;;;;11.55;3.78;;;3.40;99.90;;;;;;5079979;28;20032;-44
2021/10/25 02:43:29;;;;;;;7.03;4.10;;;3.40;99.90;;;;;;5088874;28;20469;-46
2021/10/25 02:45:55;;;;;;;9.73;3.85;;;3.40;99.90;;;;;;5088890;28;20059;-45
2021/10/25 02:48:20;;;;;;;8.82;3.95;;;3.40;99.90;;;;;;5079665;28;20429;-44
2021/10/25 02:50:46;;;;;;;7.18;4.20;;;3.40;99.90;;;;;;5077534;28;20020;-45
2021/10/25 02:53:12;;;;;;;7.65;4.03;;;3.40;99.90;;;;;;5088852;28;20024;-44
2021/10/25 02:55:38;;;;;;;5.60;3.38;;;3.30;99.90;;;;;;5088698;28;20028;-44
2021/10/25 02:58:04;;;;;;;11.95;3.97;;;3.30;99.90;;;;;;5088082;28;20477;-44
2021/10/25 03:00:30;;;;;;;8.45;4.35;;;3.40;99.90;;;;;;5088565;28;20035;-44
2021/10/25 03:02:55;;;;;;;9.13;4.82;;;3.30;99.90;;;;;;5088621;28;20032;-44
2021/10/25 03:05:21;;;;;;;8.20;4.85;;;3.40;99.90;;;;;;5088399;28;20029;-44
2021/10/25 03:07:47;;;;;;;7.93;4.72;;;3.40;99.90;;;;;;5087817;28;20031;-45
2021/10/25 03:10:12;;;;;;;7.95;5.07;;;3.50;99.90;;;;;;5076311;28;20406;-44
2021/10/25 03:12:38;;;;;;;10.52;5.13;;;3.60;99.90;;;;;;5085861;28;20170;-44
2021/10/25 03:15:05;;;;;;;6.32;4.40;;;3.70;99.90;;;;;;5088508;28;20039;-45
2021/10/25 03:17:31;;;;;;;8.55;4.80;;;3.80;99.90;;;;;;5088120;28;20024;-45
2021/10/25 03:19:56;;;;;;;7.25;4.15;;;3.70;99.90;;;;;;5088436;28;20513;-48
2021/10/25 03:22:22;;;;;;;10.15;4.28;;;3.70;99.90;;;;;;5088839;28;20432;-45
2021/10/25 03:24:48;;;;;;;7.22;3.83;;;3.70;99.90;;;;;;5084012;28;20017;-45
2021/10/25 03:27:14;;;;;;;9.57;4.90;;;3.70;99.90;;;;;;5077813;28;20390;-44
2021/10/25 03:29:40;;;;;;;9.88;4.47;;;3.70;99.90;;;;;;5088304;28;20028;-44
2021/10/25 03:32:06;;;;;;;11.38;5.30;;;3.60;99.90;;;;;;5088189;28;20496;-44
2021/10/25 03:34:32;;;;;;;6.30;3.70;;;3.60;99.90;;;;;;5088227;28;20035;-44
2021/10/25 03:36:57;;;;;;;9.93;4.28;;;3.60;99.90;;;;;;5088588;28;20027;-45
2021/10/25 03:39:25;;;;;;;6.55;4.20;;;3.60;99.90;;;;;;5090496;28;20036;-44
2021/10/25 03:41:54;;;;;;;7.75;4.40;;;3.50;99.90;;;;;;5092417;28;20020;-45
2021/10/25 03:44:24;;;;;;;8.85;3.95;;;3.50;99.90;;;;;;5092578;28;20031;-45
2021/10/25 03:46:56;;;;;;;5.85;3.78;;;3.40;99.90;;;;;;5092328;28;20039;-44
2021/10/25 03:51:49;;;;;;;5.60;3.70;;;3.30;99.90;;;;;;5091223;28;20127;-45
2021/10/25 03:54:33;;;;;;;7.72;4.10;;;3.30;99.90;;;;;;5092086;28;20048;-44
2021/10/25 03:59:52;;;;;;;6.18;3.90;;;3.20;99.90;;;;;;5052063;28;20032;-44
2021/10/25 04:02:50;;;;;;;8.47;4.27;;;3.20;99.90;;;;;;5061252;28;20040;-43
2021/10/25 04:27:14;;;;;;;9.10;4.80;;;3.10;99.90;;;;;;5082187;28;20115;-43
2021/10/25 04:29:41;;;;;;;11.25;5.55;;;3.30;99.90;;;;;;5091549;28;20414;-44
2021/10/25 04:32:08;;;;;;;8.90;5.10;;;3.60;99.90;;;;;;5091511;28;20393;-44
2021/10/25 04:34:34;;;;;;;10.90;6.43;;;3.90;99.90;;;;;;5076505;28;20016;-43
2021/10/25 04:37:00;;;;;;;15.20;5.82;;;4.20;99.90;;;;;;5090924;28;20081;-44
2021/10/25 04:39:25;;;;;;;15.90;5.05;;;4.50;99.90;;;;;;5074244;28;20032;-44
2021/10/25 04:41:51;;;;;;;10.38;4.63;;;4.60;99.90;;;;;;5082853;28;20028;-44
2021/10/25 04:44:16;;;;;;;8.27;4.75;;;4.80;99.90;;;;;;5091169;28;20024;-44
2021/10/25 04:46:42;;;;;;;12.60;4.82;;;5.00;99.90;;;;;;5090820;28;20134;-44
2021/10/25 04:49:07;;;;;;;10.93;4.90;;;5.10;99.90;;;;;;5071506;28;20033;-44
2021/10/25 04:51:34;;;;;;;12.82;5.10;;;5.40;99.90;;;;;;5056259;28;20040;-43
2021/10/25 04:54:01;;;;;;;15.57;6.38;;;5.50;99.90;;;;;;5081524;28;20512;-46
2021/10/25 04:56:26;;;;;;;11.48;4.47;;;5.60;99.90;;;;;;5088550;28;20277;-43
2021/10/25 04:58:52;;;;;;;9.95;4.70;;;5.70;99.90;;;;;;5088445;28;20092;-43
2021/10/25 05:01:17;;;;;;;10.50;4.97;;;5.80;99.90;;;;;;5090093;28;20067;-44
2021/10/25 05:03:43;;;;;;;10.57;4.70;;;5.80;99.90;;;;;;5089606;28;20401;-45
2021/10/25 05:06:15;;;;;;;12.40;4.75;;;5.80;99.90;;;;;;5089777;28;20024;-44
2021/10/25 05:08:41;;;;;;;7.57;4.43;;;5.80;99.90;;;;;;5089410;28;20020;-44
2021/10/25 05:11:06;;;;;;;6.75;4.60;;;5.90;99.90;;;;;;5089153;28;20074;-45
2021/10/25 05:13:32;;;;;;;9.95;4.95;;;6.00;99.90;;;;;;5089718;28;20028;-44
2021/10/25 05:15:57;;;;;;;7.78;4.63;;;6.00;99.90;;;;;;5089021;28;20020;-43
2021/10/25 05:18:23;;;;;;;11.65;5.22;;;6.00;99.90;;;;;;5083085;28;20376;-44
2021/10/25 05:20:49;;;;;;;8.65;5.63;;;6.10;99.90;;;;;;5073386;28;20497;-44
2021/10/25 05:23:14;;;;;;;11.05;4.38;;;6.20;99.90;;;;;;5065370;28;20024;-44
2021/10/25 05:25:41;;;;;;;9.07;5.00;;;6.20;99.90;;;;;;5053737;28;20041;-44
2021/10/25 05:28:07;;;;;;;10.32;4.90;;;6.20;99.90;;;;;;5064592;28;20032;-45
2021/10/25 05:30:32;;;;;;;10.25;4.30;;;6.20;99.90;;;;;;5062587;28;20410;-44
2021/10/25 05:32:58;;;;;;;10.57;5.22;;;6.20;99.90;;;;;;5076275;28;20027;-43
2021/10/25 05:35:24;;;;;;;12.15;4.82;;;6.20;99.90;;;;;;5069932;28;20175;-44
2021/10/25 05:37:50;;;;;;;8.90;4.80;;;6.20;99.90;;;;;;5064825;28;20025;-44
2021/10/25 05:40:16;;;;;;;11.23;5.22;;;6.20;99.90;;;;;;5071990;28;20033;-43
2021/10/25 05:42:41;;;;;;;8.80;5.18;;;6.20;99.90;;;;;;5067523;28;20024;-46
2021/10/25 05:45:07;;;;;;;8.18;5.03;;;6.20;99.90;;;;;;5068035;28;20025;-45
2021/10/25 05:47:33;;;;;;;14.32;5.15;;;6.10;99.90;;;;;;5063805;28;20037;-45
2021/10/25 05:49:59;;;;;;;8.63;4.60;;;6.10;99.90;;;;;;5079481;28;20020;-43
2021/10/25 05:52:25;;;;;;;9.52;4.85;;;6.10;99.90;;;;;;5076059;28;20101;-44
2021/10/25 05:54:52;;;;;;;8.43;4.80;;;6.10;99.90;;;;;;5076847;28;20100;-43
2021/10/25 05:57:18;;;;;;;10.73;5.13;;;6.10;99.90;;;;;;5078142;28;20012;-43
2021/10/25 05:59:45;;;;;;;10.05;5.22;;;6.10;99.90;;;;;;5055196;28;20457;-44
2021/10/25 06:04:45;;;;;;;8.52;4.90;;;6.10;99.90;;;;;;5069172;28;20090;-43
2021/10/25 06:07:11;;;;;;;7.45;5.43;;;6.10;99.90;;;;;;5067487;28;20502;-44
2021/10/25 06:09:36;;;;;;;9.35;5.18;;;6.10;99.90;;;;;;5071027;28;20393;-43
2021/10/25 06:12:07;;;;;;;11.35;4.85;;;6.10;99.90;;;;;;5070432;28;20021;-44
2021/10/25 06:14:37;;;;;;;7.53;4.78;;;6.10;99.90;;;;;;5079839;28;20020;-43
2021/10/25 06:17:14;;;;;;;10.73;5.22;;;6.10;99.90;;;;;;5047106;28;20024;-44
2021/10/25 06:19:39;;;;;;;10.50;5.95;;;6.10;99.90;;;;;;5056611;28;20482;-44
2021/10/25 06:22:05;;;;;;;12.23;5.50;;;6.10;99.90;;;;;;5070103;28;20028;-44
2021/10/25 06:24:30;;;;;;;7.78;4.97;;;6.10;99.90;;;;;;5077080;28;20051;-44
2021/10/25 06:26:56;;;;;;;10.50;4.90;;;6.10;99.90;;;;;;5079557;28;20110;-45
2021/10/25 06:29:22;;;;;;;9.52;5.88;;;6.10;99.90;;;;;;5053012;28;21066;-45
2021/10/25 06:31:47;;;;;;;10.85;5.57;;;6.10;99.90;;;;;;5077096;28;20033;-46
2021/10/25 06:34:20;;;;;;;11.05;5.10;;;6.10;99.90;;;;;;5079652;28;20474;-43
2021/10/25 06:36:48;;;;;;;14.10;5.20;;;6.10;99.90;;;;;;5051565;28;20040;-44
2021/10/25 06:39:20;;;;;;;12.90;5.13;;;6.20;99.90;;;;;;5058134;28;20070;-44
2021/10/25 06:41:45;;;;;;;10.20;5.40;;;6.20;99.90;;;;;;5061488;28;20032;-46
2021/10/25 06:44:11;;;;;;;15.35;5.25;;;6.30;99.90;;;;;;5079479;28;20032;-44
2021/10/25 06:46:40;;;;;;;8.25;5.68;;;6.40;99.90;;;;;;5076191;28;20077;-44
2021/10/25 06:49:05;;;;;;;11.40;6.25;;;6.40;99.90;;;;;;5070931;28;20020;-44
2021/10/25 06:51:32;;;;;;;10.15;5.68;;;6.40;99.90;;;;;;5077319;28;20024;-44
2021/10/25 06:53:57;;;;;;;8.48;5.68;;;6.50;99.90;;;;;;5081117;28;20029;-46
2021/10/25 06:56:23;;;;;;;12.82;5.35;;;6.60;99.90;;;;;;5055064;28;20528;-45
2021/10/25 06:58:48;;;;;;;12.40;6.10;;;6.60;99.90;;;;;;5060023;28;20036;-43
2021/10/25 07:01:14;;;;;;;11.68;6.25;;;6.70;99.90;;;;;;5062537;28;20027;-45
2021/10/25 07:03:39;;;;;;;11.95;6.50;;;6.70;99.90;;;;;;5058521;28;20100;-45
2021/10/25 07:06:07;;;;;;;9.07;5.43;;;6.80;99.90;;;;;;5063768;28;20494;-44
2021/10/25 07:08:33;;;;;;;9.65;5.63;;;6.80;99.90;;;;;;5053692;28;20028;-43
2021/10/25 07:10:59;;;;;;;9.52;5.22;;;6.80;99.90;;;;;;5054649;28;20060;-44
2021/10/25 07:13:25;;;;;;;13.40;5.47;;;6.90;99.90;;;;;;5058766;28;20098;-45
2021/10/25 07:16:02;;;;;;;11.60;5.80;;;6.90;99.90;;;;;;5062438;28;20467;-44
2021/10/25 07:26:09;;;;;;;13.10;5.63;;;7.10;99.90;;;;;;5036221;28;20047;-44
2021/10/25 07:27:02;;;;;;;9.75;6.78;;;7.20;99.90;;;;;;5060219;28;20371;-44
2021/10/25 08:02:40;;;;;;;12.15;7.15;;;8.40;99.90;;;;;;5058222;28;20504;-44
2021/10/25 08:07:34;;;;;;;8.50;6.47;;;8.50;99.90;;;;;;5060694;28;20032;-43
2021/10/25 08:10:07;;;;;;;11.52;5.97;;;8.60;99.90;;;;;;5065577;28;20478;-43
2021/10/25 08:12:35;;;;;;;12.30;6.82;;;8.80;99.90;;;;;;5082711;28;20470;-44
2021/10/25 08:15:04;;;;;;;12.18;6.18;;;8.80;99.90;;;;;;5063261;28;20082;-44
2021/10/25 08:17:48;;;;;;;10.07;6.55;;;8.90;99.90;;;;;;5066809;28;20028;-44
2021/10/25 08:20:13;;;;;;;11.65;6.35;;;9.00;99.90;;;;;;5071575;28;20024;-45
2021/10/25 08:22:41;;;;;;;9.45;6.15;;;9.10;99.90;;;;;;5066061;28;20029;-43
2021/10/25 08:25:08;;;;;;;11.90;6.20;;;9.20;99.90;;;;;;5073387;28;20020;-44
2021/10/25 08:27:35;;;;;;;15.23;6.63;;;9.40;99.90;;;;;;5073621;28;20024;-46
2021/10/25 08:30:00;;;;;;;10.77;6.28;;;9.30;99.90;;;;;;5078520;28;20040;-44
2021/10/25 08:35:01;;;;;;;10.55;5.60;;;9.30;99.90;;;;;;5079868;28;20071;-45
2021/10/25 08:39:54;;;;;;;8.68;6.20;;;9.30;99.90;;;;;;5074584;28;20032;-45
2021/10/25 08:42:22;;;;;;;9.73;5.95;;;9.30;99.90;;;;;;5076234;28;20112;-45
2021/10/25 08:44:58;;;;;;;11.15;6.55;;;9.40;99.90;;;;;;5073333;28;20372;-46
2021/10/25 08:47:39;;;;;;;13.95;6.72;;;9.50;99.90;;;;;;5047832;28;20441;-44
2021/10/25 08:50:08;;;;;;;14.90;6.90;;;9.60;99.90;;;;;;5071781;28;20029;-44
2021/10/25 08:52:34;;;;;;;11.88;6.05;;;9.70;99.90;;;;;;5085987;28;20323;-47
2021/10/25 08:55:05;;;;;;;14.15;6.78;;;9.80;99.90;;;;;;5074239;28;20060;-44
2021/10/25 08:57:32;;;;;;;10.55;6.65;;;10.00;99.90;;;;;;5081306;28;20031;-45
2021/10/25 08:59:59;;;;;;;13.30;6.30;;;10.30;99.90;;;;;;5071729;28;20496;-44
2021/10/25 09:02:27;;;;;;;12.32;7.75;;;10.50;99.90;;;;;;5072809;28;20114;-43
2021/10/25 09:04:58;;;;;;;11.02;6.45;;;10.70;99.90;;;;;;5056123;28;20540;-47
2021/10/25 09:07:23;;;;;;;11.75;6.70;;;11.00;99.90;;;;;;5056760;28;20029;-47
2021/10/25 09:09:49;;;;;;;12.38;6.95;;;11.10;99.90;;;;;;5066777;28;20347;-45
2021/10/25 09:12:15;;;;;;;10.05;7.40;;;11.40;99.90;;;;;;5057789;28;20021;-44
2021/10/25 09:14:41;;;;;;;13.75;6.50;;;12.00;99.90;;;;;;5060718;28;20326;-44
2021/10/25 09:17:09;;;;;;;13.82;6.80;;;13.10;99.90;;;;;;5058012;28;20029;-45
2021/10/25 09:19:37;;;;;;;9.70;6.50;;;14.20;97.70;;;;;;5058204;28;20181;-44
2021/10/25 09:22:17;;;;;;;10.43;6.93;;;15.30;94.30;;;;;;5057728;28;20025;-44
2021/10/25 09:24:54;;;;;;;10.38;6.22;;;16.10;91.90;;;;;;5058496;28;20031;-44
2021/10/25 09:27:36;;;;;;;10.48;6.53;;;16.60;88.70;;;;;;5059333;28;20544;-45
2021/10/25 09:30:06;;;;;;;11.05;5.95;;;16.60;88.10;;;;;;5068049;28;20112;-44
2021/10/25 09:32:33;;;;;;;15.23;6.70;;;16.90;88.30;;;;;;5074965;28;20024;-45
2021/10/25 09:35:01;;;;;;;13.95;6.30;;;17.80;80.80;;;;;;5066953;28;20029;-46
2021/10/25 09:37:32;;;;;;;9.00;5.05;;;17.50;80.10;;;;;;5075770;28;20016;-46
2021/10/25 09:40:07;;;;;;;12.15;5.80;;;18.40;79.00;;;;;;5059945;28;20286;-45
2021/10/25 09:43:26;;;;;;;10.45;5.38;;;18.70;76.70;;;;;;5066389;28;20027;-45
2021/10/25 09:45:46;;;;;;;7.70;4.70;;;19.50;74.30;;;;;;5049386;28;20039;-46
2021/10/25 09:51:02;;;;;;;6.27;4.47;;;20.70;68.30;;;;;;5060903;28;20096;-45
2021/10/25 09:53:29;;;;;;;12.40;5.25;;;21.30;65.60;;;;;;5063670;28;20103;-46
2021/10/25 09:55:55;;;;;;;9.93;5.05;;;21.40;63.30;;;;;;5069070;28;20489;-46
2021/10/25 09:58:23;;;;;;;12.30;5.38;;;22.00;60.80;;;;;;5056395;28;20187;-45
2021/10/25 10:00:49;;;;;;;10.27;4.45;;;22.20;60.70;;;;;;5053422;28;20037;-46
2021/10/25 10:03:16;;;;;;;8.77;4.75;;;22.10;61.10;;;;;;5057941;28;20020;-45
2021/10/25 10:05:43;;;;;;;9.25;5.20;;;22.80;57.70;;;;;;5062224;28;20437;-46
2021/10/25 10:08:09;;;;;;;6.00;4.32;;;23.50;56.00;;;;;;5066043;28;20033;-47
2021/10/25 10:10:39;;;;;;;12.40;5.03;;;23.20;56.90;;;;;;5049728;28;20023;-45
2021/10/25 10:13:06;;;;;;;6.27;4.27;;;23.40;56.70;;;;;;5075592;28;20044;-46
2021/10/25 10:15:34;;;;;;;9.50;5.05;;;23.70;55.90;;;;;;5071695;28;20485;-45
2021/10/25 10:18:07;;;;;;;7.30;4.70;;;22.80;53.90;;;;;;5073789;28;20081;-45
2021/10/25 10:20:35;;;;;;;9.95;4.90;;;23.10;55.70;;;;;;5067353;28;20024;-46
2021/10/25 10:23:06;;;;;;;8.82;4.72;;;22.30;56.80;;;;;;5075405;28;20233;-45
2021/10/25 10:26:04;;;;;;;9.75;4.95;;;22.20;56.70;;;;;;5073572;28;20074;-45
2021/10/25 10:28:50;;;;;;;8.38;4.38;;;21.90;58.00;;;;;;5055324;28;20123;-47
2021/10/25 10:31:17;;;;;;;12.18;5.20;;;21.80;58.70;;;;;;5072999;28;20033;-47
2021/10/25 10:33:46;;;;;;;8.20;4.75;;;21.90;58.00;;;;;;5054806;28;20055;-48
2021/10/25 10:36:27;;;;;;;9.82;4.80;;;21.80;57.80;;;;;;5057547;28;20096;-45
2021/10/25 10:39:07;;;;;;;9.05;5.82;;;20.30;60.10;;;;;;5078029;28;20051;-45
2021/10/25 10:41:40;;;;;;;10.27;5.45;;;18.70;64.70;;;;;;5057097;28;20455;-47
2021/10/25 10:44:11;;;;;;;10.70;5.20;;;19.50;64.50;;;;;;5075214;28;20036;-45
2021/10/25 10:47:12;;;;;;;11.48;5.40;;;19.40;63.60;;;;;;5047404;28;20263;-44
2021/10/25 10:49:43;;;;;;;9.55;5.45;;;19.50;64.00;;;;;;5075515;28;20422;-45
2021/10/25 10:52:55;;;;;;;7.57;5.93;;;19.50;64.30;;;;;;5058733;28;20028;-46
2021/10/25 10:55:26;;;;;;;8.05;4.95;;;19.00;65.50;;;;;;5067085;28;20123;-44
2021/10/25 11:00:38;;;;;;;6.38;4.78;;;19.90;64.50;;;;;;5064697;28;20070;-47
2021/10/25 11:03:22;;;;;;;6.80;4.70;;;19.70;63.40;;;;;;5059708;28;20043;-44
2021/10/25 11:06:08;;;;;;;7.95;4.90;;;20.00;63.10;;;;;;5064137;28;20055;-45
2021/10/25 11:08:36;;;;;;;7.32;4.32;;;20.40;62.30;;;;;;5066587;28;20029;-45
2021/10/25 11:11:07;;;;;;;7.35;4.18;;;20.70;62.40;;;;;;5067197;28;20107;-44
2021/10/25 11:13:40;;;;;;;10.48;4.72;;;20.00;63.40;;;;;;5067331;28;20024;-44
2021/10/25 11:16:19;;;;;;;8.40;4.85;;;21.20;61.80;;;;;;5064749;28;20166;-47
2021/10/25 11:18:48;;;;;;;9.70;4.32;;;21.90;58.70;;;;;;5074115;28;20024;-44
2021/10/25 11:21:35;;;;;;;7.95;5.00;;;21.50;60.00;;;;;;5081535;28;20028;-45
2021/10/25 11:24:06;;;;;;;9.43;5.47;;;21.50;59.00;;;;;;5068623;28;20335;-45
2021/10/25 11:26:42;;;;;;;8.40;4.95;;;20.50;60.20;;;;;;5070559;28;20036;-43
2021/10/25 11:29:15;;;;;;;8.80;4.93;;;18.60;64.30;;;;;;5061563;28;20051;-46
2021/10/25 11:31:50;;;;;;;5.88;4.38;;;18.30;67.30;;;;;;5068861;28;20441;-44
2021/10/25 11:34:24;;;;;;;9.10;5.00;;;18.60;66.30;;;;;;5058176;28;20027;-45
2021/10/25 11:37:02;;;;;;;8.73;4.85;;;19.00;65.50;;;;;;5061243;28;20016;-46
2021/10/25 11:39:37;;;;;;;11.10;5.10;;;18.30;66.30;;;;;;5056974;28;20037;-44
2021/10/25 11:42:09;;;;;;;8.38;4.93;;;18.00;68.00;;;;;;5061362;28;20160;-44
2021/10/25 11:44:35;;;;;;;9.40;5.03;;;17.90;68.00;;;;;;5060001;28;20021;-44
2021/10/25 11:47:01;;;;;;;7.75;4.75;;;17.40;70.10;;;;;;5061345;28;20475;-44
2021/10/25 11:49:27;;;;;;;10.25;4.78;;;17.10;71.40;;;;;;5054207;28;20510;-45
2021/10/25 11:51:55;;;;;;;5.13;4.00;;;17.30;70.90;;;;;;5065207;28;20031;-44
2021/10/25 11:54:22;;;;;;;8.60;5.43;;;18.00;71.90;;;;;;5078433;28;20020;-46
2021/10/25 11:56:54;;;;;;;6.78;4.28;;;19.10;68.20;;;;;;5046508;28;20021;-46
2021/10/25 11:59:21;;;;;;;5.40;4.03;;;20.50;64.60;;;;;;5059393;28;20036;-45
2021/10/25 12:01:48;;;;;;;6.03;4.10;;;21.50;62.50;;;;;;5081702;28;20035;-46
2021/10/25 12:04:14;;;;;;;8.32;4.30;;;21.60;62.10;;;;;;5082600;28;20381;-44
2021/10/25 12:06:51;;;;;;;8.48;3.95;;;22.40;60.00;;;;;;5070965;28;20086;-44
2021/10/25 12:09:16;;;;;;;5.45;3.95;;;23.30;57.50;;;;;;5068417;28;20068;-44
2021/10/25 12:14:11;;;;;;;8.20;4.20;;;22.50;58.80;;;;;;5066983;28;20032;-46
2021/10/25 12:16:39;;;;;;;7.80;3.78;;;22.00;59.70;;;;;;5077511;28;20027;-47
2021/10/25 12:19:06;;;;;;;7.30;3.75;;;21.60;60.90;;;;;;5074758;28;20020;-45
2021/10/25 12:21:34;;;;;;;6.47;3.65;;;21.60;64.20;;;;;;5081319;28;20024;-44
2021/10/25 12:24:01;;;;;;;8.75;4.15;;;21.90;61.30;;;;;;5056884;28;20656;-44
2021/10/25 12:26:27;;;;;;;7.95;3.85;;;21.60;63.20;;;;;;5075135;28;20420;-45
2021/10/25 12:28:53;;;;;;;9.13;4.72;;;21.40;62.60;;;;;;5064649;28;20157;-44
2021/10/25 12:31:20;;;;;;;8.82;3.80;;;21.70;63.20;;;;;;5072382;28;20020;-44
2021/10/25 12:33:51;;;;;;;9.10;3.33;;;21.10;63.80;;;;;;5081852;28;20466;-45
2021/10/25 12:36:16;;;;;;;;;;;21.30;62.40;;;;;;5062089;28;20072;-44
2021/10/25 12:38:43;;;;;;;7.00;3.47;;;21.20;64.00;;;;;;5075777;28;20149;-45
2021/10/25 12:41:09;;;;;;;8.35;3.22;;;21.50;62.80;;;;;;5089110;28;20035;-44
2021/10/25 12:43:46;;;;;;;6.68;3.92;;;21.00;63.50;;;;;;5063290;28;20020;-45
2021/10/25 12:46:22;;;;;;;7.20;4.28;;;20.70;65.70;;;;;;5068896;28;20437;-44
2021/10/25 12:48:56;;;;;;;6.63;4.05;;;20.30;65.00;;;;;;5070758;28;20119;-46
2021/10/25 12:51:32;;;;;;;9.27;3.63;;;20.10;66.40;;;;;;5079545;28;20099;-46
2021/10/25 12:54:05;;;;;;;7.35;3.35;;;20.00;66.40;;;;;;5056061;28;20008;-46
2021/10/25 12:56:30;;;;;;;6.22;3.08;;;19.90;66.80;;;;;;5078982;28;20025;-47
2021/10/25 12:59:04;;;;;;;6.50;2.85;;;19.70;66.20;;;;;;5068242;28;20016;-48
2021/10/25 13:01:30;;;;;;;7.22;3.20;;;19.90;67.90;;;;;;5060122;28;20033;-44
2021/10/25 13:03:57;;;;;;;7.25;2.67;;;19.80;66.70;;;;;;5068673;28;20017;-44
2021/10/25 13:06:27;;;;;;;7.07;3.13;;;19.60;68.90;;;;;;5071952;28;20111;-44
2021/10/25 13:09:06;;;;;;;6.97;3.08;;;19.70;69.30;;;;;;5080373;28;20074;-43
2021/10/25 13:11:32;;;;;;;4.43;2.72;;;19.50;70.10;;;;;;5073247;28;20481;-44
2021/10/25 13:13:58;;;;;;;8.13;3.47;;;19.50;70.50;;;;;;5062502;28;20060;-44
2021/10/25 13:16:28;;;;;;;7.85;2.53;;;19.30;69.60;;;;;;5071264;28;20031;-43
2021/10/25 13:18:54;;;;;;;3.83;2.42;;;19.20;70.60;;;;;;5080076;28;20513;-46
2021/10/25 13:21:20;;;;;;;6.68;3.28;;;19.20;71.60;;;;;;5088019;28;20505;-44
2021/10/25 13:23:46;;;;;;;5.97;2.63;;;19.20;70.40;;;;;;5072932;28;20052;-44
2021/10/25 13:26:11;;;;;;;5.50;2.60;;;19.00;70.90;;;;;;5079321;28;20278;-43
2021/10/25 13:28:38;;;;;;;6.13;2.72;;;19.10;73.00;;;;;;5067523;28;20359;-45
2021/10/25 13:31:04;;;;;;;5.22;2.88;;;19.00;71.20;;;;;;5082518;28;20143;-44
2021/10/25 13:33:34;;;;;;;3.97;2.42;;;18.90;73.00;;;;;;5079328;28;20071;-43
2021/10/25 13:36:00;;;;;;;5.82;3.05;;;18.80;72.30;;;;;;5068303;28;20108;-43
2021/10/25 13:38:25;;;;;;;5.00;2.63;;;18.70;71.40;;;;;;5067738;28;20111;-44
2021/10/25 13:40:51;;;;;;;5.43;3.17;;;18.70;71.20;;;;;;5078197;28;20508;-43
2021/10/25 13:43:17;;;;;;;7.05;3.35;;;18.50;70.90;;;;;;5088415;28;20058;-46
2021/10/25 13:45:43;;;;;;;13.13;3.97;;;18.30;73.70;;;;;;5074688;28;20461;-44
2021/10/25 13:48:09;;;;;;;4.50;2.75;;;17.60;73.70;;;;;;5055244;28;20056;-45
2021/10/25 13:50:34;;;;;;;5.82;2.80;;;17.30;74.70;;;;;;5056783;28;20045;-44
2021/10/25 13:53:01;;;;;;;5.47;3.00;;;17.20;76.70;;;;;;5075947;28;20123;-44
2021/10/25 13:55:26;;;;;;;6.90;3.22;;;17.10;76.30;;;;;;5058783;28;20025;-45
2021/10/25 13:57:52;;;;;;;5.80;2.95;;;17.30;76.20;;;;;;5075589;28;20085;-43
2021/10/25 14:00:18;;;;;;;9.93;3.30;;;17.40;75.40;;;;;;5081167;28;20662;-46
2021/10/25 14:02:44;;;;;;;7.47;3.08;;;17.40;75.10;;;;;;5068579;28;20029;-42
2021/10/25 14:05:12;;;;;;;7.68;3.40;;;17.40;74.90;;;;;;5085643;28;20107;-44
2021/10/25 14:07:38;;;;;;;4.78;2.85;;;17.20;75.40;;;;;;5055970;28;20024;-45
2021/10/25 14:10:14;;;;;;;6.90;3.13;;;17.10;76.80;;;;;;5057204;28;20074;-43
2021/10/25 14:12:41;;;;;;;7.20;3.25;;;17.00;76.10;;;;;;5075230;28;20024;-44
2021/10/25 14:15:21;;;;;;;8.73;3.17;;;16.80;77.30;;;;;;5078973;28;20019;-44
2021/10/25 14:17:50;;;;;;;5.10;3.17;;;16.60;77.10;;;;;;5063654;28;20509;-44
2021/10/25 14:20:16;;;;;;;8.80;3.72;;;16.30;78.70;;;;;;5048071;28;20028;-46